RLDRICHLAND
METARs for airports near RLD, sorted by distance:
N 0 nm 394' KRLD 241115Z 00000KT 10SM CLR M04/M04 A2994
E 8 nm 410' KPSC 241053Z 00000KT 10SM CLR M04/M06 A2995
S 28 nm 644' KHRI 241053Z 15004KT 10SM FEW046 M05/M07 A2990
SE 41 nm 1496' KPDT 241053Z 13007KT 10SM CLR M03/M06 A2990
E 44 nm 1194' KALW 241053Z 15005KT 10SM CLR M03/M06 A2990
W 53 nm 1098' KYKM 241053Z 00000KT 7SM CLR M04/M06 A2989
N 54 nm 1188' KMWH 241052Z 01005KT 10SM CLR M04/M07 A2991
N 60 nm 1276' KEPH 241053Z 34007KT 10SM CLR M03/M06 A2990
NW 66 nm 1763' KELN 241053Z 00000KT 10SM BKN120 M03/M06 A2985
NW 75 nm 1248' KEAT 241055Z 00000KT 10SM BKN120 M04/M07 A2991
SE 81 nm 2717' KLGD 241056Z 33003KT 10SM CLR M09/M10 A2989
SW 88 nm 246' KDLS 241053Z VRB03KT 4SM BR OVC047 M02/M03 A2993
E 94 nm 2566' KPUW 241100Z 08005KT 10SM BKN026 M04/M07 A2987
E 94 nm 1442' KLWS 241056Z 00000KT 10SM CLR M05/M07 A2992
TAFs for airports near RLD, sorted by distance:
E 8 nm 410' KPSC TAF KPSC 241120Z 2412/2512 34004KT P6SM BKN150
  FM250400 29004KT 3SM -SN BR OVC030
  FM251000 27004KT P6SM OVC025
SE 41 nm 1496' KPDT TAF KPDT 241120Z 2412/2512 14005KT P6SM BKN150
  FM242000 34004KT P6SM SCT050 BKN150
  FM250600 07005KT 3SM -SN OVC030
E 44 nm 1194' KALW TAF KALW 241120Z 2412/2512 12005KT P6SM BKN150
  FM242000 30004KT P6SM OVC100
  FM250700 18005KT 3SM -SN OVC030
W 53 nm 1098' KYKM TAF KYKM 241120Z 2412/2512 29005KT P6SM OVC150
  TEMPO 2412/2415 5SM BR SCT010
  FM241800 VRB02KT P6SM OVC100
  FM242000 VRB03KT 3SM -SN OVC030
  FM250300 27003KT 6SM BR VCSH OVC030
  FM250800 29004KT P6SM OVC050
N 54 nm 1188' KMWH TAF KMWH 240542Z 2406/2506 36004KT P6SM FEW025 BKN200
  FM241700 02004KT P6SM BKN050 OVC100
  FM241900 03005KT 6SM -SN OVC024
  FM242200 01005KT 4SM -SN BR OVC015
  FM250300 34005KT 2SM -SN OVC008
NW 75 nm 1248' KEAT TAF KEAT 240542Z 2406/2506 29004KT P6SM SCT100 BKN200
  FM241600 VRB03KT P6SM OVC025
  FM242000 VRB03KT 2SM -SN BR OVC018
  FM242200 VRB04KT 1 1/2SM -SN BR OVC015
  FM250300 00000KT P6SM BKN010 PROB30 2503/2504 4SM -SN BR OVC008
SW 88 nm 246' KDLS TAF KDLS 241120Z 2412/2512 VRB03KT 5SM BR OVC050
  TEMPO 2412/2415 1SM BR SCT005
  FM241700 VRB03KT P6SM OVC050
  FM241900 10002KT 2SM -SN BR OVC015
  FM250300 VRB04KT 6SM BR VCSH OVC020
  FM250800 VRB03KT P6SM OVC030
E 94 nm 2566' KPUW TAF
  AMD KPUW 241018Z 2410/2506 08006KT P6SM SCT030
  TEMPO 2410/2413 BKN029
  FM241600 12009KT P6SM BKN040 OVC080
E 94 nm 1442' KLWS KLWS 240542Z 2406/2506 12004KT P6SM FEW200
  FM241500 10004KT P6SM FEW050 BKN150
  FM250300 20004KT P6SM SCT040 OVC080

Shortcut to this page: http://wxbay.com.

Data may contain errors.